createdAt,value
2019-04-27T00:01:40.625Z,10.90
2019-04-27T00:04:25.770Z,11.00
2019-04-27T00:06:59.710Z,10.90
2019-04-27T00:09:50.070Z,10.90
2019-04-27T00:12:16.500Z,10.90
2019-04-27T00:14:48.285Z,10.80
2019-04-27T00:17:45.401Z,10.70
2019-04-27T00:20:31.242Z,10.70
2019-04-27T00:23:05.036Z,10.70
2019-04-27T00:25:34.310Z,10.70
2019-04-27T00:28:05.226Z,10.80
2019-04-27T00:30:35.605Z,10.80
2019-04-27T00:33:05.486Z,10.80
2019-04-27T00:35:47.573Z,10.80
2019-04-27T00:38:36.235Z,10.80
2019-04-27T00:41:08.899Z,10.80
2019-04-27T00:43:38.094Z,10.80
2019-04-27T00:46:07.374Z,10.70
2019-04-27T00:48:36.649Z,10.70
2019-04-27T00:51:05.874Z,10.60
2019-04-27T00:53:35.173Z,10.60
2019-04-27T00:56:23.633Z,10.50
2019-04-27T00:59:24.562Z,10.50
2019-04-27T01:02:13.478Z,10.40
2019-04-27T01:04:43.170Z,10.40
2019-04-27T01:07:14.212Z,10.40
2019-04-27T01:09:43.647Z,10.40
2019-04-27T01:12:13.595Z,10.50
2019-04-27T01:14:45.073Z,10.50
2019-04-27T01:17:13.970Z,10.50
2019-04-27T01:19:43.254Z,10.50
2019-04-27T01:22:12.623Z,10.60
2019-04-27T01:24:41.951Z,10.60
2019-04-27T01:27:30.262Z,10.50
2019-04-27T01:30:27.029Z,10.50
2019-04-27T01:32:56.288Z,10.40
2019-04-27T01:35:25.506Z,10.40
2019-04-27T01:37:54.729Z,10.40
2019-04-27T01:40:23.913Z,10.40
2019-04-27T01:42:53.118Z,10.30
2019-04-27T01:45:22.369Z,10.30
2019-04-27T01:47:51.624Z,10.20
2019-04-27T01:50:20.945Z,10.30
2019-04-27T01:52:50.173Z,10.20
2019-04-27T01:55:19.583Z,10.20
2019-04-27T01:57:48.851Z,10.20
2019-04-27T02:01:04.559Z,10.20
2019-04-27T02:03:44.540Z,10.20
2019-04-27T02:06:13.937Z,10.10
2019-04-27T02:08:43.274Z,10.10
2019-04-27T02:11:12.484Z,10.10
2019-04-27T02:13:41.951Z,10.10
2019-04-27T02:16:11.243Z,10.10
2019-04-27T02:18:40.499Z,10.10
2019-04-27T02:21:09.740Z,10.10
2019-04-27T02:23:39.379Z,10.10
2019-04-27T02:26:08.905Z,10.10
2019-04-27T02:28:44.983Z,10.10
2019-04-27T02:31:31.964Z,10.10
2019-04-27T02:34:14.513Z,10.10
2019-04-27T02:36:43.872Z,10.10
2019-04-27T02:39:13.152Z,10.10
2019-04-27T02:41:42.542Z,10.10
2019-04-27T02:44:20.036Z,10.20
2019-04-27T02:46:50.352Z,10.20
2019-04-27T02:49:20.230Z,10.20
2019-04-27T02:52:13.796Z,10.20
2019-04-27T02:54:42.999Z,10.20
2019-04-27T02:57:12.595Z,10.20
2019-04-27T02:59:41.838Z,10.30
2019-04-27T03:02:35.958Z,10.30
2019-04-27T03:05:06.307Z,10.30
2019-04-27T03:07:35.710Z,10.30
2019-04-27T03:10:05.751Z,10.30
2019-04-27T03:12:43.738Z,10.30
2019-04-27T03:15:24.216Z,10.30
2019-04-27T03:18:13.407Z,10.30
2019-04-27T03:21:13.147Z,10.30
2019-04-27T03:23:41.694Z,10.40
2019-04-27T03:26:33.176Z,10.40
2019-04-27T03:29:02.540Z,10.40
2019-04-27T03:31:33.060Z,10.40
2019-04-27T03:34:05.171Z,10.50
2019-04-27T03:36:34.790Z,10.50
2019-04-27T03:39:05.135Z,10.50
2019-04-27T03:41:34.439Z,10.50
2019-04-27T03:44:03.891Z,10.50
2019-04-27T03:46:33.166Z,10.40
2019-04-27T03:49:03.306Z,10.40
2019-04-27T03:52:03.000Z,10.40
2019-04-27T03:54:56.487Z,10.30
2019-04-27T03:57:34.471Z,10.30
2019-04-27T04:00:06.735Z,10.30
2019-04-27T04:02:36.043Z,10.30
2019-04-27T04:05:06.126Z,10.40
2019-04-27T04:07:35.660Z,10.40
2019-04-27T04:10:05.898Z,10.40
2019-04-27T04:12:42.300Z,10.40
2019-04-27T04:15:19.855Z,10.40
2019-04-27T04:17:49.607Z,10.40
2019-04-27T04:20:20.128Z,10.40
2019-04-27T04:22:51.396Z,10.30
2019-04-27T04:25:20.705Z,10.40
2019-04-27T04:27:50.714Z,10.30
2019-04-27T04:30:20.334Z,10.30
2019-04-27T04:32:51.947Z,10.30
2019-04-27T04:35:23.569Z,10.30
2019-04-27T04:37:53.477Z,10.30
2019-04-27T04:40:30.700Z,10.40
2019-04-27T04:43:06.378Z,10.40
2019-04-27T04:45:50.277Z,10.40
2019-04-27T04:48:20.135Z,10.40
2019-04-27T04:50:50.186Z,10.40
2019-04-27T04:53:20.619Z,10.40
2019-04-27T04:55:50.136Z,10.30
2019-04-27T04:58:20.947Z,10.40
2019-04-27T05:00:50.438Z,10.40
2019-04-27T05:03:21.833Z,10.40
2019-04-27T05:05:50.865Z,10.40
2019-04-27T05:08:20.154Z,10.40
2019-04-27T05:10:49.803Z,10.40
2019-04-27T05:13:19.468Z,10.40
2019-04-27T05:15:48.956Z,10.40
2019-04-27T05:18:19.107Z,10.40
2019-04-27T05:20:58.618Z,10.40
2019-04-27T05:23:28.752Z,10.40
2019-04-27T05:25:59.273Z,10.40
2019-04-27T05:28:29.840Z,10.40
2019-04-27T05:31:00.590Z,10.50
2019-04-27T05:33:30.162Z,10.60
2019-04-27T05:35:59.465Z,10.60
2019-04-27T05:38:29.503Z,10.70
2019-04-27T05:40:58.835Z,10.70
2019-04-27T05:43:34.571Z,10.70
2019-04-27T05:46:42.235Z,10.70
2019-04-27T05:49:17.110Z,10.80
2019-04-27T05:51:48.013Z,10.70
2019-04-27T05:54:19.138Z,10.70
2019-04-27T05:56:49.221Z,10.70
2019-04-27T05:59:19.856Z,10.70
2019-04-27T06:01:49.473Z,10.80
2019-04-27T06:04:19.345Z,10.70
2019-04-27T06:06:49.869Z,10.70
2019-04-27T06:09:19.618Z,10.80
2019-04-27T06:11:50.667Z,10.80
2019-04-27T06:14:19.935Z,10.80
2019-04-27T06:16:51.288Z,10.70
2019-04-27T06:19:20.645Z,10.70
2019-04-27T06:21:50.071Z,10.60
2019-04-27T06:24:19.441Z,10.60
2019-04-27T06:26:49.773Z,10.50
2019-04-27T06:29:19.658Z,10.50
2019-04-27T06:31:49.684Z,10.50
2019-04-27T06:34:24.108Z,10.60
2019-04-27T06:36:53.487Z,10.60
2019-04-27T06:39:22.706Z,10.60
2019-04-27T06:41:52.053Z,10.60
2019-04-27T06:44:21.451Z,10.60
2019-04-27T06:46:50.745Z,10.60
2019-04-27T06:49:20.062Z,10.70
2019-04-27T06:51:49.821Z,10.80
2019-04-27T06:54:21.228Z,10.80
2019-04-27T06:56:50.812Z,10.80
2019-04-27T06:59:20.108Z,10.80
2019-04-27T07:01:49.299Z,10.80
2019-04-27T07:04:19.625Z,10.80
2019-04-27T07:06:53.989Z,10.80
2019-04-27T07:09:19.978Z,10.80
2019-04-27T07:11:49.697Z,10.80
2019-04-27T07:14:19.675Z,10.70
2019-04-27T07:16:50.702Z,10.70
2019-04-27T07:19:23.329Z,10.70
2019-04-27T07:21:52.530Z,10.60
2019-04-27T07:24:21.718Z,10.60
2019-04-27T07:26:51.139Z,10.70
2019-04-27T07:29:23.100Z,10.70
2019-04-27T07:31:51.304Z,10.60
2019-04-27T07:34:20.657Z,10.60
2019-04-27T07:36:49.856Z,10.60
2019-04-27T07:39:19.419Z,10.60
2019-04-27T07:41:49.192Z,10.70
2019-04-27T07:44:24.470Z,10.70
2019-04-27T07:47:12.848Z,10.60
2019-04-27T07:49:42.624Z,10.70
2019-04-27T07:52:11.886Z,10.70
2019-04-27T07:54:41.258Z,10.70
2019-04-27T07:57:10.490Z,10.80
2019-04-27T07:59:42.005Z,10.90
2019-04-27T08:02:11.032Z,11.10
2019-04-27T08:04:40.683Z,11.10
2019-04-27T08:07:10.161Z,11.20
2019-04-27T08:09:39.816Z,11.30
2019-04-27T08:12:10.890Z,11.50
2019-04-27T08:14:40.579Z,11.60
2019-04-27T08:17:09.876Z,12.00
2019-04-27T08:19:39.533Z,12.20
2019-04-27T08:22:09.691Z,12.20
2019-04-27T08:24:39.673Z,12.20
2019-04-27T08:27:17.326Z,12.00
2019-04-27T08:30:00.903Z,11.80
2019-04-27T08:32:35.027Z,11.60
2019-04-27T08:35:04.991Z,11.30
2019-04-27T08:37:34.255Z,11.20
2019-04-27T08:40:03.851Z,11.20
2019-04-27T08:42:33.105Z,11.20
2019-04-27T08:45:02.282Z,11.30
2019-04-27T08:47:31.511Z,11.40
2019-04-27T08:50:00.850Z,11.70
2019-04-27T08:52:30.113Z,11.90
2019-04-27T08:54:59.534Z,12.20
2019-04-27T08:57:29.065Z,12.40
2019-04-27T08:59:59.708Z,12.50
2019-04-27T09:02:41.153Z,12.60
2019-04-27T09:05:00.112Z,12.90
2019-04-27T09:07:54.479Z,13.00
2019-04-27T09:10:31.665Z,12.90
2019-04-27T09:13:08.851Z,13.10
2019-04-27T09:15:45.798Z,13.00
2019-04-27T09:18:19.085Z,13.10
2019-04-27T09:20:52.081Z,12.80
2019-04-27T09:23:21.322Z,12.80
2019-04-27T09:25:50.802Z,12.70
2019-04-27T09:28:21.934Z,12.80
2019-04-27T09:30:51.558Z,13.00
2019-04-27T09:33:22.406Z,13.20
2019-04-27T09:35:51.784Z,13.00
2019-04-27T09:38:21.072Z,12.80
2019-04-27T09:40:50.369Z,12.90
2019-04-27T09:43:19.695Z,13.10
2019-04-27T09:45:48.987Z,13.50
2019-04-27T09:48:18.311Z,13.80
2019-04-27T09:50:47.663Z,13.90
2019-04-27T09:53:17.792Z,13.80
2019-04-27T09:55:47.104Z,13.60
2019-04-27T09:58:18.409Z,14.10
2019-04-27T10:00:49.527Z,14.90
2019-04-27T10:03:18.893Z,15.10
2019-04-27T10:05:48.190Z,15.60
2019-04-27T10:08:17.589Z,15.70
2019-04-27T10:10:48.000Z,15.60
2019-04-27T10:13:17.505Z,15.20
2019-04-27T10:15:46.783Z,15.50
2019-04-27T10:18:16.371Z,16.00
2019-04-27T10:20:56.914Z,16.00
2019-04-27T10:23:16.904Z,15.80
2019-04-27T10:25:46.179Z,15.40
2019-04-27T10:28:15.504Z,15.00
2019-04-27T10:30:45.777Z,14.90
2019-04-27T10:33:16.094Z,15.10
2019-04-27T10:36:06.320Z,15.30
2019-04-27T10:38:36.083Z,15.30
2019-04-27T10:41:05.648Z,15.40
2019-04-27T10:43:36.484Z,15.40
2019-04-27T10:46:06.684Z,15.20
2019-04-27T10:48:36.699Z,15.10
2019-04-27T10:51:07.354Z,15.10
2019-04-27T10:53:38.903Z,14.90
2019-04-27T10:56:07.714Z,15.00
2019-04-27T10:58:37.049Z,14.90
2019-04-27T11:01:08.560Z,14.70
2019-04-27T11:04:12.167Z,14.50
2019-04-27T11:06:43.969Z,14.40
2019-04-27T11:09:13.147Z,14.70
2019-04-27T11:11:42.475Z,15.00
2019-04-27T11:14:11.739Z,15.00
2019-04-27T11:16:40.987Z,15.00
2019-04-27T11:19:10.221Z,15.10
2019-04-27T11:21:39.519Z,15.30
2019-04-27T11:24:08.791Z,15.60
2019-04-27T11:26:38.087Z,15.60
2019-04-27T11:29:07.341Z,15.50
2019-04-27T11:31:36.562Z,15.40
2019-04-27T11:34:06.699Z,15.40
2019-04-27T11:37:07.390Z,15.40
2019-04-27T11:39:36.687Z,15.40
2019-04-27T11:42:05.888Z,15.70
2019-04-27T11:44:35.933Z,15.80
2019-04-27T11:47:06.026Z,15.80
2019-04-27T11:49:35.965Z,15.70
2019-04-27T11:52:05.845Z,15.80
2019-04-27T11:54:35.602Z,16.00
2019-04-27T11:57:05.200Z,16.30
2019-04-27T11:59:34.546Z,16.40
2019-04-27T12:02:03.824Z,16.60
2019-04-27T12:04:33.086Z,16.80
2019-04-27T12:07:02.384Z,16.80
2019-04-27T12:09:31.679Z,16.70
2019-04-27T12:12:12.636Z,16.60
2019-04-27T12:14:31.891Z,16.70
2019-04-27T12:17:01.441Z,16.70
2019-04-27T12:19:30.753Z,16.90
2019-04-27T12:22:00.051Z,16.40
2019-04-27T12:24:29.285Z,16.20
2019-04-27T12:27:11.405Z,16.20
2019-04-27T12:29:58.521Z,16.20
2019-04-27T12:32:28.367Z,16.00
2019-04-27T12:34:57.563Z,15.60
2019-04-27T12:37:26.890Z,15.20
2019-04-27T12:39:57.612Z,14.90
2019-04-27T12:42:26.998Z,14.70
2019-04-27T12:44:56.283Z,14.70
2019-04-27T12:47:26.290Z,14.40
2019-04-27T12:49:57.521Z,14.40
2019-04-27T12:52:26.607Z,14.30
2019-04-27T12:55:05.887Z,14.20
2019-04-27T12:57:54.115Z,13.80
2019-04-27T13:00:26.689Z,13.60
2019-04-27T13:02:57.773Z,13.80
2019-04-27T13:05:27.200Z,13.90
2019-04-27T13:07:56.476Z,13.40
2019-04-27T13:10:25.806Z,13.10
2019-04-27T13:12:57.869Z,13.20
2019-04-27T13:15:28.305Z,13.30
2019-04-27T13:17:57.684Z,13.50
2019-04-27T13:20:26.966Z,13.80
2019-04-27T13:22:56.242Z,13.80
2019-04-27T13:25:25.473Z,14.00
2019-04-27T13:27:56.248Z,14.20
2019-04-27T13:30:26.122Z,14.40
2019-04-27T13:32:56.213Z,14.30
2019-04-27T13:35:25.943Z,13.80
2019-04-27T13:37:55.941Z,13.00
2019-04-27T13:40:25.985Z,12.40
2019-04-27T13:43:13.074Z,12.10
2019-04-27T13:46:10.427Z,12.00
2019-04-27T13:48:48.030Z,11.80
2019-04-27T13:51:32.736Z,12.00
2019-04-27T13:54:14.183Z,12.20
2019-04-27T13:56:32.934Z,12.30
2019-04-27T13:59:03.358Z,12.60
2019-04-27T14:01:33.597Z,13.00
2019-04-27T14:04:02.899Z,13.50
2019-04-27T14:06:32.081Z,13.70
2019-04-27T14:09:01.271Z,13.70
2019-04-27T14:11:30.559Z,13.70
2019-04-27T14:13:59.850Z,13.50
2019-04-27T14:16:29.150Z,13.50
2019-04-27T14:18:59.431Z,13.50
2019-04-27T14:21:29.614Z,13.70
2019-04-27T14:23:58.949Z,13.70
2019-04-27T14:26:28.486Z,13.90
2019-04-27T14:28:58.324Z,13.80
2019-04-27T14:31:29.168Z,13.70
2019-04-27T14:33:58.722Z,13.90
2019-04-27T14:36:29.204Z,14.00
2019-04-27T14:38:58.924Z,14.20
2019-04-27T14:41:28.340Z,14.20
2019-04-27T14:44:06.143Z,14.40
2019-04-27T14:46:30.512Z,14.40
2019-04-27T14:48:59.590Z,14.20
2019-04-27T14:51:28.787Z,14.30
2019-04-27T14:53:58.897Z,14.20
2019-04-27T14:56:28.360Z,13.90
2019-04-27T14:58:58.727Z,13.90
2019-04-27T15:01:29.033Z,13.80
2019-04-27T15:03:58.476Z,13.80
2019-04-27T15:06:27.804Z,13.70
2019-04-27T15:08:57.173Z,13.70
2019-04-27T15:11:26.752Z,13.70
2019-04-27T15:13:59.274Z,13.60
2019-04-27T15:16:26.970Z,13.70
2019-04-27T15:19:02.366Z,13.70
2019-04-27T15:21:32.595Z,13.90
2019-04-27T15:24:09.412Z,14.10
2019-04-27T15:26:33.309Z,14.20
2019-04-27T15:29:04.179Z,14.00
2019-04-27T15:31:38.771Z,13.90
2019-04-27T15:34:27.552Z,13.80
2019-04-27T15:37:12.107Z,13.70
2019-04-27T15:40:10.019Z,13.50
2019-04-27T15:42:49.593Z,13.60
2019-04-27T15:45:15.858Z,13.70
2019-04-27T15:47:48.903Z,13.70
2019-04-27T15:50:15.837Z,13.70
2019-04-27T15:52:45.037Z,13.50
2019-04-27T15:55:31.551Z,13.40
2019-04-27T15:57:46.906Z,13.30
2019-04-27T16:00:22.357Z,13.20
2019-04-27T16:02:52.755Z,13.30
2019-04-27T16:05:23.596Z,13.20
2019-04-27T16:07:53.262Z,13.20
2019-04-27T16:10:22.578Z,13.10
2019-04-27T16:13:05.797Z,13.10
2019-04-27T16:15:22.943Z,12.90
2019-04-27T16:17:55.887Z,12.80
2019-04-27T16:20:30.204Z,12.70
2019-04-27T16:23:03.153Z,12.40
2019-04-27T16:25:31.452Z,12.10
2019-04-27T16:27:58.810Z,11.90
2019-04-27T16:30:28.787Z,11.80
2019-04-27T16:32:58.424Z,11.60
2019-04-27T16:35:28.310Z,11.50
2019-04-27T16:38:35.002Z,11.60
2019-04-27T16:41:11.895Z,11.60
2019-04-27T16:43:41.108Z,11.70
2019-04-27T16:46:10.377Z,11.70
2019-04-27T16:48:39.638Z,11.70
2019-04-27T16:51:10.681Z,11.80
2019-04-27T16:53:41.114Z,11.90
2019-04-27T16:56:14.712Z,12.00
2019-04-27T16:58:41.626Z,12.10
2019-04-27T17:01:20.145Z,12.30
2019-04-27T17:03:49.469Z,12.40
2019-04-27T17:06:21.348Z,12.40
2019-04-27T17:08:49.878Z,12.50
2019-04-27T17:11:19.747Z,12.60
2019-04-27T17:13:54.027Z,12.60
2019-04-27T17:17:03.819Z,12.60
2019-04-27T17:19:42.520Z,12.60
2019-04-27T17:22:10.487Z,12.70
2019-04-27T17:24:46.844Z,12.80
2019-04-27T17:27:11.860Z,12.80
2019-04-27T17:29:42.309Z,12.80
2019-04-27T17:32:25.484Z,12.60
2019-04-27T17:35:02.461Z,12.30
2019-04-27T17:37:29.926Z,11.90
2019-04-27T17:40:01.124Z,11.70
2019-04-27T17:42:30.755Z,11.40
2019-04-27T17:45:00.587Z,11.30
2019-04-27T17:47:30.235Z,11.20
2019-04-27T17:49:59.651Z,11.10
2019-04-27T17:52:28.875Z,11.10
2019-04-27T17:54:58.995Z,11.20
2019-04-27T17:57:30.128Z,11.30
2019-04-27T18:00:03.133Z,11.20
2019-04-27T18:02:33.950Z,11.30
2019-04-27T18:05:01.713Z,11.40
2019-04-27T18:07:34.843Z,11.40
2019-04-27T18:10:01.965Z,11.40
2019-04-27T18:12:31.593Z,11.30
2019-04-27T18:15:00.871Z,11.30
2019-04-27T18:17:31.671Z,11.40
2019-04-27T18:20:03.837Z,11.30
2019-04-27T18:22:39.646Z,11.30
2019-04-27T18:25:10.793Z,11.20
2019-04-27T18:27:58.498Z,11.10
2019-04-27T18:30:45.897Z,11.00
2019-04-27T18:33:15.287Z,11.00
2019-04-27T18:35:44.883Z,11.00
2019-04-27T18:38:14.096Z,10.90
2019-04-27T18:40:43.568Z,10.90
2019-04-27T18:43:12.786Z,10.90
2019-04-27T18:45:45.048Z,11.00
2019-04-27T18:48:19.560Z,11.00
2019-04-27T18:50:58.698Z,10.90
2019-04-27T18:53:29.246Z,10.90
2019-04-27T18:56:04.840Z,10.80
2019-04-27T18:58:29.435Z,10.90
2019-04-27T19:00:58.798Z,11.00
2019-04-27T19:03:31.038Z,10.90
2019-04-27T19:05:58.959Z,11.00
2019-04-27T19:08:28.262Z,10.90
2019-04-27T19:11:00.089Z,11.00
2019-04-27T19:13:28.506Z,11.00
2019-04-27T19:15:57.938Z,11.10
2019-04-27T19:18:28.763Z,11.10
2019-04-27T19:20:58.479Z,11.10
2019-04-27T19:23:28.875Z,11.00
2019-04-27T19:26:22.979Z,10.50
2019-04-27T19:29:09.521Z,10.20
2019-04-27T19:31:43.136Z,9.80
2019-04-27T19:34:12.482Z,9.70
2019-04-27T19:36:41.753Z,9.60
2019-04-27T19:39:14.085Z,9.60
2019-04-27T19:41:56.271Z,9.60
2019-04-27T19:44:14.597Z,9.60
2019-04-27T19:46:43.897Z,9.60
2019-04-27T19:49:13.117Z,9.60
2019-04-27T19:51:42.636Z,9.60
2019-04-27T19:54:11.959Z,9.60
2019-04-27T19:56:41.154Z,9.60
2019-04-27T19:59:18.750Z,9.60
2019-04-27T20:01:48.968Z,9.60
2019-04-27T20:04:37.319Z,9.60
2019-04-27T20:07:10.390Z,9.50
2019-04-27T20:09:58.354Z,9.50
2019-04-27T20:12:28.075Z,9.50
2019-04-27T20:14:57.636Z,9.50
2019-04-27T20:17:28.445Z,9.50
2019-04-27T20:19:57.775Z,9.60
2019-04-27T20:22:27.289Z,9.60
2019-04-27T20:24:56.638Z,9.60
2019-04-27T20:27:26.158Z,9.60
2019-04-27T20:29:55.390Z,9.60
2019-04-27T20:32:24.674Z,9.60
2019-04-27T20:34:54.020Z,9.60
2019-04-27T20:37:23.294Z,9.60
2019-04-27T20:39:52.556Z,9.60
2019-04-27T20:42:22.023Z,9.50
2019-04-27T20:44:51.771Z,9.50
2019-04-27T20:47:21.336Z,9.60
2019-04-27T20:49:50.737Z,9.60
2019-04-27T20:52:41.936Z,9.60
2019-04-27T20:55:12.164Z,9.60
2019-04-27T20:57:41.852Z,9.60
2019-04-27T21:00:13.410Z,9.60
2019-04-27T21:03:02.457Z,9.60
2019-04-27T21:05:51.106Z,9.60
2019-04-27T21:08:21.216Z,9.60
2019-04-27T21:10:51.533Z,9.60
2019-04-27T21:13:21.377Z,9.70
2019-04-27T21:15:50.977Z,9.70
2019-04-27T21:18:21.732Z,9.60
2019-04-27T21:20:51.296Z,9.70
2019-04-27T21:23:21.015Z,9.70
2019-04-27T21:25:53.053Z,9.70
2019-04-27T21:28:21.350Z,9.70
2019-04-27T21:30:50.686Z,9.70
2019-04-27T21:33:21.521Z,9.80
2019-04-27T21:35:51.372Z,9.80
2019-04-27T21:38:20.804Z,9.70
2019-04-27T21:40:50.219Z,9.70
2019-04-27T21:43:21.602Z,9.70
2019-04-27T21:45:51.227Z,9.70
2019-04-27T21:48:41.429Z,9.70
2019-04-27T21:51:11.834Z,9.70
2019-04-27T21:54:12.773Z,9.70
2019-04-27T21:56:42.162Z,9.80
2019-04-27T21:59:11.386Z,9.70
2019-04-27T22:01:41.960Z,9.70
2019-04-27T22:04:11.479Z,9.60
2019-04-27T22:06:41.600Z,9.60
2019-04-27T22:09:12.832Z,9.40
2019-04-27T22:11:42.110Z,9.30
2019-04-27T22:14:11.826Z,9.20
2019-04-27T22:16:41.654Z,9.20
2019-04-27T22:19:12.057Z,9.10
2019-04-27T22:21:41.965Z,9.10
2019-04-27T22:24:21.229Z,9.00
2019-04-27T22:26:51.808Z,9.00
2019-04-27T22:29:22.126Z,9.00
2019-04-27T22:31:51.788Z,9.00
2019-04-27T22:34:22.532Z,9.00
2019-04-27T22:36:53.985Z,9.00
2019-04-27T22:39:40.439Z,9.00
2019-04-27T22:42:27.295Z,9.00
2019-04-27T22:45:01.259Z,9.00
2019-04-27T22:47:31.790Z,9.00
2019-04-27T22:50:01.187Z,9.00
2019-04-27T22:52:30.800Z,9.00
2019-04-27T22:55:01.675Z,9.00
2019-04-27T22:57:37.630Z,8.90
2019-04-27T23:00:37.024Z,9.00
2019-04-27T23:03:08.885Z,8.90
2019-04-27T23:05:38.219Z,8.90
2019-04-27T23:08:07.523Z,8.90
2019-04-27T23:10:36.798Z,9.00
2019-04-27T23:13:06.216Z,8.90
2019-04-27T23:15:41.210Z,8.90
2019-04-27T23:18:31.183Z,8.90
2019-04-27T23:21:01.554Z,8.90
2019-04-27T23:23:31.096Z,8.90
2019-04-27T23:26:01.777Z,8.90
2019-04-27T23:28:31.441Z,8.90
2019-04-27T23:31:13.170Z,8.90
2019-04-27T23:33:45.222Z,8.90
2019-04-27T23:36:14.500Z,8.90
2019-04-27T23:38:43.791Z,9.00
2019-04-27T23:41:13.001Z,9.00
2019-04-27T23:43:42.212Z,9.00
2019-04-27T23:46:11.664Z,9.00
2019-04-27T23:48:42.009Z,9.10
2019-04-27T23:51:27.543Z,9.10
2019-04-27T23:53:56.856Z,9.10
2019-04-27T23:56:26.129Z,9.10
2019-04-27T23:59:01.127Z,9.10
